Time;durP1;ratioP1;P1;durP2;ratioP2;P2;SDS_P1;SDS_P2;PMS_P1;PMS_P2;Temp;Humidity;BMP_temperature;BMP_pressure;BME280_temperature;BME280_humidity;BME280_pressure;Samples;Min_cycle;Max_cycle;Signal;HPM_P1;HPM_P2
2023/11/29 00:01:05;;;;;;;12.80;10.80;;;;;;;-0.86;100.00;96895.20;109657;1251;59821;-68
2023/11/29 00:03:32;;;;;;;13.60;10.80;;;;;;;-0.88;100.00;96891.45;109648;1251;59715;-69
2023/11/29 00:05:58;;;;;;;12.80;11.20;;;;;;;-0.91;100.00;96891.73;109625;1251;75561;-69
2023/11/29 00:08:25;;;;;;;12.10;10.70;;;;;;;-0.94;100.00;96892.42;109661;1251;67922;-70
2023/11/29 00:10:52;;;;;;;11.90;10.70;;;;;;;-0.97;100.00;96888.53;109584;1250;59842;-70
2023/11/29 00:13:20;;;;;;;12.80;10.60;;;;;;;-0.99;100.00;96884.98;109564;1251;59777;-71
2023/11/29 00:15:46;;;;;;;11.20;10.10;;;;;;;-1.01;100.00;96881.86;109647;1250;60224;-69
2023/11/29 00:18:13;;;;;;;11.30;10.20;;;;;;;-1.02;100.00;96883.73;109717;1251;74702;-70
2023/11/29 00:20:40;;;;;;;16.50;11.00;;;;;;;-1.04;100.00;96880.96;109655;1251;65769;-69
2023/11/29 00:23:07;;;;;;;12.20;10.20;;;;;;;-1.06;100.00;96882.94;109571;1251;72438;-71
2023/11/29 00:25:33;;;;;;;12.30;11.00;;;;;;;-1.09;100.00;96882.19;109585;1251;59979;-70
2023/11/29 00:28:00;;;;;;;12.50;10.20;;;;;;;-1.11;100.00;96880.13;109626;1251;60278;-71
2023/11/29 00:30:28;;;;;;;11.80;9.70;;;;;;;-1.12;100.00;96879.41;109651;1250;59641;-69
2023/11/29 00:32:56;;;;;;;11.10;9.80;;;;;;;-1.13;100.00;96876.20;109635;1251;67911;-68
2023/11/29 00:35:24;;;;;;;11.80;10.50;;;;;;;-1.13;100.00;96877.77;109516;1251;72549;-69
2023/11/29 00:37:50;;;;;;;12.10;10.90;;;;;;;-1.14;100.00;96880.80;109546;1251;59770;-69
2023/11/29 00:40:17;;;;;;;12.80;11.40;;;;;;;-1.14;100.00;96879.82;109605;1251;59742;-69
2023/11/29 00:42:44;;;;;;;12.20;10.80;;;;;;;-1.15;100.00;96876.09;109612;1251;75346;-69
2023/11/29 00:45:11;;;;;;;12.50;10.30;;;;;;;-1.15;100.00;96879.25;109705;1251;68342;-68
2023/11/29 00:47:38;;;;;;;12.80;10.90;;;;;;;-1.16;100.00;96880.05;109570;1252;72669;-69
2023/11/29 00:50:05;;;;;;;11.90;10.70;;;;;;;-1.17;100.00;96879.64;109605;1251;61102;-71
2023/11/29 00:52:32;;;;;;;15.50;9.80;;;;;;;-1.18;100.00;96874.29;109624;1251;60430;-70
2023/11/29 00:54:59;;;;;;;12.00;10.00;;;;;;;-1.17;100.00;96876.11;109638;1251;60202;-70
2023/11/29 00:57:25;;;;;;;9.90;8.90;;;;;;;-1.17;100.00;96872.42;109654;1251;66397;-69
2023/11/29 00:59:52;;;;;;;11.90;9.50;;;;;;;-1.17;100.00;96871.89;109588;1250;71624;-69
2023/11/29 01:02:19;;;;;;;18.90;11.70;;;;;;;-1.17;100.00;96872.67;109561;1252;60195;-70
2023/11/29 01:04:45;;;;;;;12.50;11.20;;;;;;;-1.18;100.00;96869.80;109654;1251;59822;-70
2023/11/29 01:07:12;;;;;;;13.80;12.20;;;;;;;-1.20;100.00;96868.38;109630;1251;73789;-69
2023/11/29 01:09:38;;;;;;;13.00;10.80;;;;;;;-1.20;100.00;96867.52;109517;1251;59752;-70
2023/11/29 01:12:05;;;;;;;12.10;10.80;;;;;;;-1.20;100.00;96869.98;109603;1251;59635;-69
2023/11/29 01:14:31;;;;;;;11.60;10.40;;;;;;;-1.18;100.00;96870.30;109600;1251;61191;-69
2023/11/29 01:16:58;;;;;;;12.80;10.50;;;;;;;-1.18;100.00;96872.72;109648;1251;60928;-70
2023/11/29 01:19:25;;;;;;;12.10;10.30;;;;;;;-1.17;100.00;96866.71;109672;1250;74002;-69
2023/11/29 01:21:51;;;;;;;10.50;9.40;;;;;;;-1.17;100.00;96864.98;109695;1251;59733;-69
2023/11/29 01:24:18;;;;;;;12.30;10.80;;;;;;;-1.16;100.00;96864.16;109637;1251;59732;-70
2023/11/29 01:26:44;;;;;;;11.30;10.10;;;;;;;-1.13;100.00;96864.41;109596;1251;59925;-70
2023/11/29 01:29:11;;;;;;;12.60;10.40;;;;;;;-1.13;100.00;96858.15;109660;1251;59670;-70
2023/11/29 01:31:37;;;;;;;12.10;10.70;;;;;;;-1.11;100.00;96858.30;109643;1252;74516;-71
2023/11/29 01:34:04;;;;;;;12.40;11.10;;;;;;;-1.11;100.00;96857.20;109628;1251;67743;-68
2023/11/29 01:36:31;;;;;;;11.90;10.30;;;;;;;-1.08;100.00;96858.80;109632;1251;70242;-69
2023/11/29 01:38:57;;;;;;;13.80;10.10;;;;;;;-1.05;100.00;96861.77;109500;1251;60068;-69
2023/11/29 01:41:24;;;;;;;12.80;11.50;;;;;;;-1.03;100.00;96861.81;109650;1251;59666;-69
2023/11/29 01:43:50;;;;;;;13.90;11.80;;;;;;;-1.02;100.00;96855.70;109643;1251;75269;-71
2023/11/29 01:46:17;;;;;;;13.60;12.20;;;;;;;-1.01;100.00;96854.88;109664;1251;66589;-68
2023/11/29 01:48:44;;;;;;;12.40;11.20;;;;;;;-0.97;100.00;96856.57;109630;1251;72422;-70
2023/11/29 01:51:10;;;;;;;12.00;10.90;;;;;;;-0.96;100.00;96855.42;109639;1251;60283;-73
2023/11/29 01:53:37;;;;;;;12.30;9.90;;;;;;;-0.96;100.00;96861.03;109612;1251;59838;-71
2023/11/29 01:56:07;;;;;;;11.70;10.20;;;;;;;-0.95;100.00;96862.08;109648;1250;74068;-70
2023/11/29 01:58:33;;;;;;;11.10;9.70;;;;;;;-0.91;100.00;96859.98;109606;1250;66326;-71
2023/11/29 02:01:00;;;;;;;11.10;9.90;;;;;;;-0.89;100.00;96857.06;109575;1251;71228;-68
2023/11/29 02:03:27;;;;;;;10.90;9.80;;;;;;;-0.86;100.00;96853.80;109706;1251;59673;-70
2023/11/29 02:05:54;;;;;;;11.40;10.30;;;;;;;-0.84;100.00;96854.45;109563;1251;60075;-70
2023/11/29 02:08:21;;;;;;;10.90;9.70;;;;;;;-0.84;100.00;96854.95;109669;1250;75515;-72
2023/11/29 02:10:49;;;;;;;10.40;9.20;;;;;;;-0.84;100.00;96854.33;109485;1251;66016;-72
2023/11/29 02:13:16;;;;;;;10.40;9.30;;;;;;;-0.86;100.00;96856.21;109548;1251;70223;-71
2023/11/29 02:15:43;;;;;;;10.00;8.90;;;;;;;-0.87;100.00;96854.42;109618;1250;60957;-72
2023/11/29 02:18:09;;;;;;;9.80;8.60;;;;;;;-0.88;100.00;96854.93;109678;1251;60217;-70
2023/11/29 02:20:36;;;;;;;10.20;9.20;;;;;;;-0.89;100.00;96855.08;109583;1251;74317;-70
2023/11/29 02:23:17;;;;;;;10.10;9.00;;;;;;;-0.90;100.00;96853.59;109652;1251;67060;-72
2023/11/29 02:25:44;;;;;;;9.00;8.00;;;;;;;-0.91;100.00;96852.22;109640;1251;70990;-75
2023/11/29 02:28:12;;;;;;;8.80;8.00;;;;;;;-0.90;100.00;96851.81;109617;1250;59812;-70
2023/11/29 02:30:38;;;;;;;10.20;9.20;;;;;;;-0.91;100.00;96853.70;109697;1251;60110;-71
2023/11/29 02:33:05;;;;;;;9.90;8.90;;;;;;;-0.91;100.00;96854.92;109673;1251;75272;-72
2023/11/29 02:35:32;;;;;;;9.60;8.50;;;;;;;-0.90;100.00;96861.36;109678;1251;66359;-70
2023/11/29 02:37:58;;;;;;;10.10;9.10;;;;;;;-0.88;100.00;96862.77;109642;1251;73537;-71
2023/11/29 02:40:25;;;;;;;9.00;8.20;;;;;;;-0.88;100.00;96863.30;109648;1251;61242;-69
2023/11/29 02:42:52;;;;;;;9.20;8.40;;;;;;;-0.88;100.00;96864.27;109677;1251;60045;-72
2023/11/29 02:45:18;;;;;;;9.90;8.80;;;;;;;-0.87;100.00;96865.61;109570;1251;75292;-71
2023/11/29 02:47:45;;;;;;;10.90;9.80;;;;;;;-0.88;100.00;96861.85;109657;1251;67945;-71
2023/11/29 02:50:12;;;;;;;11.40;8.90;;;;;;;-0.89;100.00;96864.05;109628;1251;72544;-72
2023/11/29 02:52:38;;;;;;;10.30;9.20;;;;;;;-0.89;100.00;96862.19;109642;1251;59714;-72
2023/11/29 02:55:07;;;;;;;10.80;9.70;;;;;;;-0.92;100.00;96863.71;109665;1251;60193;-71
2023/11/29 02:57:33;;;;;;;12.60;9.60;;;;;;;-0.95;100.00;96867.13;109668;1251;74152;-71
2023/11/29 03:00:00;;;;;;;11.30;10.20;;;;;;;-0.96;100.00;96872.52;109540;1251;66993;-73
2023/11/29 03:02:26;;;;;;;16.80;12.60;;;;;;;-0.99;100.00;96873.63;109663;1250;71401;-70
2023/11/29 03:04:53;;;;;;;18.80;16.20;;;;;;;-0.99;100.00;96876.17;109647;1250;59743;-72
2023/11/29 03:07:20;;;;;;;26.50;21.80;;;;;;;-1.01;100.00;96874.63;109559;1253;60010;-70
2023/11/29 03:09:46;;;;;;;32.30;25.40;;;;;;;-1.03;100.00;96877.40;109674;1251;75159;-71
2023/11/29 03:12:13;;;;;;;31.90;25.50;;;;;;;-1.03;100.00;96881.61;109606;1250;67879;-70
2023/11/29 03:14:40;;;;;;;35.10;26.60;;;;;;;-1.05;100.00;96880.73;109637;1251;71088;-72
2023/11/29 03:17:06;;;;;;;37.20;23.80;;;;;;;-1.06;100.00;96882.95;109611;1251;59944;-70
2023/11/29 03:19:33;;;;;;;23.00;15.70;;;;;;;-1.07;100.00;96878.52;109524;1251;59906;-71
2023/11/29 03:21:59;;;;;;;16.70;13.40;;;;;;;-1.07;100.00;96879.38;109679;1250;59751;-70
2023/11/29 03:24:26;;;;;;;12.90;10.80;;;;;;;-1.06;100.00;96879.48;109655;1251;59717;-73
2023/11/29 03:26:52;;;;;;;10.60;9.50;;;;;;;-1.04;100.00;96877.90;109525;1251;71237;-74
2023/11/29 03:29:19;;;;;;;10.20;9.10;;;;;;;-1.03;100.00;96878.41;109652;1250;59678;-70
2023/11/29 03:31:45;;;;;;;9.90;8.90;;;;;;;-1.03;100.00;96880.31;109644;1250;60025;-71
2023/11/29 03:34:14;;;;;;;9.50;8.50;;;;;;;-1.06;100.00;96881.70;109634;1251;75253;-71
2023/11/29 03:36:40;;;;;;;10.30;9.20;;;;;;;-1.10;100.00;96886.19;109663;1251;67166;-72
2023/11/29 03:39:07;;;;;;;10.90;9.40;;;;;;;-1.14;100.00;96888.27;109588;1250;60304;-70
2023/11/29 03:41:35;;;;;;;9.50;8.50;;;;;;;-1.16;100.00;96894.24;109613;1250;60956;-71
2023/11/29 03:44:02;;;;;;;12.70;9.50;;;;;;;-1.18;100.00;96900.21;109627;1250;60246;-71
2023/11/29 03:46:29;;;;;;;9.60;8.60;;;;;;;-1.20;100.00;96903.88;109665;1251;75210;-71
2023/11/29 03:48:56;;;;;;;9.60;8.60;;;;;;;-1.21;100.00;96905.38;109633;1251;59843;-70
2023/11/29 03:51:22;;;;;;;8.30;7.40;;;;;;;-1.21;100.00;96903.49;109666;1250;59814;-71
2023/11/29 03:53:51;;;;;;;10.00;8.70;;;;;;;-1.21;100.00;96907.15;109428;1251;59744;-71
2023/11/29 03:56:18;;;;;;;9.50;8.70;;;;;;;-1.21;100.00;96907.66;109669;1250;60178;-72
2023/11/29 03:58:44;;;;;;;9.50;8.60;;;;;;;-1.23;100.00;96904.36;109670;1250;75419;-72
2023/11/29 04:01:11;;;;;;;9.80;8.80;;;;;;;-1.26;100.00;96905.92;109611;1249;67702;-71
2023/11/29 04:03:37;;;;;;;9.50;8.60;;;;;;;-1.30;100.00;96907.65;109595;1250;71448;-70
2023/11/29 04:06:04;;;;;;;9.80;8.90;;;;;;;-1.32;100.00;96908.29;109668;1251;59954;-70
2023/11/29 04:08:34;;;;;;;9.70;8.70;;;;;;;-1.34;100.00;96903.92;109635;1251;59702;-72
2023/11/29 04:11:01;;;;;;;9.30;8.40;;;;;;;-1.34;100.00;96906.23;109513;1251;75273;-70
2023/11/29 04:13:28;;;;;;;9.60;8.70;;;;;;;-1.35;100.00;96908.44;109517;1251;66535;-76
2023/11/29 04:15:54;;;;;;;13.60;8.10;;;;;;;-1.37;100.00;96909.45;109654;1250;72969;-74
2023/11/29 04:18:21;;;;;;;9.70;8.20;;;;;;;-1.39;100.00;96910.02;109472;1251;59857;-71
2023/11/29 04:20:48;;;;;;;10.20;8.60;;;;;;;-1.42;100.00;96909.85;109530;1249;59793;-71
2023/11/29 04:23:15;;;;;;;10.50;9.00;;;;;;;-1.44;100.00;96916.63;109619;1250;75283;-72
2023/11/29 04:25:42;;;;;;;9.20;8.30;;;;;;;-1.47;100.00;96915.02;109525;1251;67683;-71
2023/11/29 04:28:09;;;;;;;10.60;9.00;;;;;;;-1.48;100.00;96917.39;109632;1251;72754;-70
2023/11/29 04:30:36;;;;;;;12.00;9.60;;;;;;;-1.50;100.00;96918.10;109629;1251;61077;-70
2023/11/29 04:33:03;;;;;;;11.10;9.90;;;;;;;-1.50;100.00;96919.69;109556;1251;59804;-70
2023/11/29 04:35:30;;;;;;;12.20;10.30;;;;;;;-1.49;100.00;96923.23;109459;1253;75269;-72
2023/11/29 04:37:57;;;;;;;15.80;12.20;;;;;;;-1.49;100.00;96923.56;109577;1251;67700;-72
2023/11/29 04:40:24;;;;;;;15.10;12.50;;;;;;;-1.51;100.00;96925.00;109537;1250;71768;-70
2023/11/29 04:42:50;;;;;;;24.60;16.70;;;;;;;-1.54;100.00;96929.30;109573;1251;59786;-72
2023/11/29 04:45:17;;;;;;;22.00;16.80;;;;;;;-1.55;100.00;96931.20;109602;1250;59796;-70
2023/11/29 04:47:43;;;;;;;20.80;15.90;;;;;;;-1.55;100.00;96937.98;109660;1251;75501;-70
2023/11/29 04:50:10;;;;;;;19.40;15.20;;;;;;;-1.56;100.00;96940.46;109509;1250;66305;-71
2023/11/29 04:52:37;;;;;;;18.60;15.10;;;;;;;-1.56;100.00;96940.55;109551;1251;72312;-70
2023/11/29 04:55:04;;;;;;;18.80;14.20;;;;;;;-1.55;100.00;96944.41;109580;1250;60001;-72
2023/11/29 04:57:31;;;;;;;12.90;11.20;;;;;;;-1.54;100.00;96950.20;109538;1250;59702;-70
2023/11/29 04:59:57;;;;;;;13.20;10.90;;;;;;;-1.55;100.00;96952.17;109539;1250;75532;-72
2023/11/29 05:02:25;;;;;;;10.90;9.20;;;;;;;-1.55;100.00;96949.46;109533;1250;67660;-72
2023/11/29 05:04:52;;;;;;;10.40;9.30;;;;;;;-1.56;100.00;96952.38;109505;1251;72527;-71
2023/11/29 05:07:18;;;;;;;10.80;8.70;;;;;;;-1.59;100.00;96954.60;109532;1250;59809;-72
2023/11/29 05:09:45;;;;;;;11.40;8.40;;;;;;;-1.65;100.00;96960.70;109562;1250;60251;-75
2023/11/29 05:12:11;;;;;;;10.40;8.60;;;;;;;-1.68;100.00;96961.39;109592;1251;75391;-71
2023/11/29 05:14:38;;;;;;;9.60;8.30;;;;;;;-1.68;100.00;96961.06;109596;1253;66633;-72
2023/11/29 05:17:04;;;;;;;10.50;9.00;;;;;;;-1.68;100.00;96966.64;109629;1250;72382;-70
2023/11/29 05:19:31;;;;;;;10.70;8.10;;;;;;;-1.67;100.00;96973.30;109618;1251;59725;-72
2023/11/29 05:21:58;;;;;;;10.20;8.10;;;;;;;-1.66;100.00;96976.14;109664;1250;60360;-74
2023/11/29 05:24:24;;;;;;;9.90;8.00;;;;;;;-1.65;100.00;96982.44;109577;1250;59804;-72
2023/11/29 05:26:52;;;;;;;8.20;7.30;;;;;;;-1.66;100.00;96985.67;109646;1251;59642;-71
2023/11/29 05:29:19;;;;;;;9.50;7.50;;;;;;;-1.68;100.00;96984.66;109645;1251;72431;-73
2023/11/29 05:31:46;;;;;;;8.70;6.80;;;;;;;-1.70;100.00;96986.83;109454;1251;60566;-67
2023/11/29 05:34:12;;;;;;;9.50;8.50;;;;;;;-1.73;100.00;96986.95;109504;1250;60069;-71
2023/11/29 05:36:39;;;;;;;8.40;7.50;;;;;;;-1.75;100.00;96990.09;109497;1250;73932;-71
2023/11/29 05:39:08;;;;;;;9.50;7.60;;;;;;;-1.77;100.00;96992.23;109537;1250;66599;-72
2023/11/29 05:41:34;;;;;;;8.90;7.50;;;;;;;-1.80;100.00;96996.20;109517;1250;71049;-70
2023/11/29 05:44:01;;;;;;;9.30;7.20;;;;;;;-1.85;100.00;97002.96;109501;1251;59876;-67
2023/11/29 05:46:29;;;;;;;8.10;7.30;;;;;;;-1.90;100.00;97006.48;109552;1251;59856;-73
2023/11/29 05:48:55;;;;;;;9.20;7.80;;;;;;;-1.92;100.00;97010.54;109489;1250;75255;-72
2023/11/29 05:51:22;;;;;;;8.30;7.50;;;;;;;-1.93;100.00;97014.84;109506;1250;66695;-70
2023/11/29 05:53:49;;;;;;;10.10;7.70;;;;;;;-1.94;100.00;97015.84;109461;1251;60001;-72
2023/11/29 05:56:15;;;;;;;7.90;7.10;;;;;;;-1.96;100.00;97016.88;109431;1251;59905;-73
2023/11/29 05:58:43;;;;;;;7.40;6.60;;;;;;;-1.98;100.00;97018.98;109475;1250;59808;-73
2023/11/29 06:01:10;;;;;;;8.70;7.90;;;;;;;-2.00;100.00;97023.48;109487;1250;74267;-67
2023/11/29 06:03:36;;;;;;;8.50;7.70;;;;;;;-2.00;100.00;97024.78;109593;1250;66347;-69
2023/11/29 06:06:04;;;;;;;7.80;7.00;;;;;;;-2.00;100.00;97029.11;109623;1250;72849;-72
2023/11/29 06:08:30;;;;;;;8.30;7.40;;;;;;;-2.02;100.00;97032.05;109514;1250;60138;-74
2023/11/29 06:10:58;;;;;;;10.90;9.30;;;;;;;-2.04;100.00;97033.67;109536;1251;60123;-71
2023/11/29 06:13:25;;;;;;;9.50;8.10;;;;;;;-2.04;100.00;97038.20;109545;1251;74307;-75
2023/11/29 06:15:51;;;;;;;8.80;7.90;;;;;;;-2.03;100.00;97042.23;109577;1250;67839;-71
2023/11/29 06:18:18;;;;;;;7.90;7.10;;;;;;;-2.03;100.00;97039.80;109632;1250;70414;-72
2023/11/29 06:20:45;;;;;;;9.80;8.00;;;;;;;-2.01;100.00;97047.21;109601;1251;60157;-74
2023/11/29 06:23:12;;;;;;;8.70;7.70;;;;;;;-1.99;100.00;97055.39;109635;1250;61173;-73
2023/11/29 06:25:38;;;;;;;8.80;7.90;;;;;;;-2.00;100.00;97061.52;109638;1250;75623;-72
2023/11/29 06:28:05;;;;;;;8.10;6.80;;;;;;;-2.01;100.00;97067.38;109608;1250;67587;-71
2023/11/29 06:30:32;;;;;;;9.10;8.00;;;;;;;-2.00;100.00;97072.64;109619;1250;71479;-72
2023/11/29 06:32:58;;;;;;;9.00;8.20;;;;;;;-2.01;100.00;97071.05;109619;1250;61204;-71
2023/11/29 06:35:25;;;;;;;8.50;7.60;;;;;;;-2.01;100.00;97069.81;109618;1251;59741;-71
2023/11/29 06:37:52;;;;;;;8.70;7.60;;;;;;;-2.01;100.00;97075.35;109661;1250;75230;-70
2023/11/29 06:40:28;;;;;;;8.40;7.50;;;;;;;-1.99;100.00;97078.66;109666;1250;65650;-72
2023/11/29 06:42:55;;;;;;;8.00;7.20;;;;;;;-1.96;100.00;97085.33;109604;1250;71277;-70
2023/11/29 06:45:21;;;;;;;7.60;6.90;;;;;;;-1.96;100.00;97089.66;109599;1250;60511;-72
2023/11/29 06:47:48;;;;;;;7.00;6.30;;;;;;;-1.97;100.00;97094.39;109673;1250;59767;-70
2023/11/29 06:50:15;;;;;;;9.50;7.50;;;;;;;-1.98;100.00;97099.02;109590;1250;74183;-72
2023/11/29 06:52:42;;;;;;;8.10;7.00;;;;;;;-2.00;100.00;97102.17;109578;1250;66505;-72
2023/11/29 06:55:10;;;;;;;7.80;6.70;;;;;;;-2.04;100.00;97107.77;109560;1250;71266;-71
2023/11/29 06:57:37;;;;;;;10.30;7.30;;;;;;;-2.07;100.00;97110.73;109568;1250;60448;-72
2023/11/29 07:00:09;;;;;;;9.50;7.80;;;;;;;-2.08;100.00;97115.83;109528;1250;60008;-72
2023/11/29 07:02:39;;;;;;;9.30;7.80;;;;;;;-2.08;100.00;97121.08;109533;1250;74641;-72
2023/11/29 07:05:08;;;;;;;8.30;7.40;;;;;;;-2.08;100.00;97125.38;109534;1250;65498;-71
2023/11/29 07:07:35;;;;;;;7.90;6.70;;;;;;;-2.08;100.00;97126.77;109540;1250;72796;-73
2023/11/29 07:10:03;;;;;;;8.40;7.60;;;;;;;-2.05;100.00;97125.13;109510;1250;60978;-71
2023/11/29 07:12:29;;;;;;;8.60;7.70;;;;;;;-2.03;100.00;97126.67;109529;1250;60230;-72
2023/11/29 07:14:58;;;;;;;8.00;7.20;;;;;;;-2.00;100.00;97129.42;109531;1250;75291;-74
2023/11/29 07:17:25;;;;;;;8.30;6.60;;;;;;;-1.96;100.00;97135.10;109513;1250;67930;-73
2023/11/29 07:19:52;;;;;;;8.70;6.90;;;;;;;-1.91;100.00;97138.80;109647;1250;72649;-72
2023/11/29 07:22:18;;;;;;;7.20;6.40;;;;;;;-1.87;100.00;97141.70;109658;1251;59804;-72
2023/11/29 07:24:45;;;;;;;7.40;6.20;;;;;;;-1.83;100.00;97139.45;109662;1250;60318;-72
2023/11/29 07:27:11;;;;;;;8.90;7.60;;;;;;;-1.81;100.00;97141.89;109629;1250;75276;-70
2023/11/29 07:29:38;;;;;;;8.70;7.40;;;;;;;-1.83;100.00;97143.95;109727;1250;68031;-72
2023/11/29 07:32:05;;;;;;;8.30;6.90;;;;;;;-1.84;100.00;97143.38;109670;1250;72646;-73
2023/11/29 07:34:32;;;;;;;7.30;6.10;;;;;;;-1.87;100.00;97145.52;109615;1251;61225;-72
2023/11/29 07:36:59;;;;;;;8.00;6.20;;;;;;;-1.87;100.00;97151.15;109619;1250;60341;-72
2023/11/29 07:39:28;;;;;;;10.00;8.00;;;;;;;-1.83;100.00;97161.02;109640;1250;75572;-72
2023/11/29 07:41:55;;;;;;;8.60;6.90;;;;;;;-1.80;100.00;97170.46;109635;1250;67681;-72
2023/11/29 07:44:23;;;;;;;9.70;7.40;;;;;;;-1.78;100.00;97170.94;109673;1250;72571;-70
2023/11/29 07:46:50;;;;;;;10.10;8.00;;;;;;;-1.76;100.00;97177.50;109607;1250;59823;-71
2023/11/29 07:49:17;;;;;;;8.80;7.30;;;;;;;-1.74;100.00;97183.09;109630;1250;60158;-71
2023/11/29 07:51:46;;;;;;;11.40;7.70;;;;;;;-1.74;100.00;97185.50;109668;1250;75286;-72
2023/11/29 07:54:13;;;;;;;7.80;7.00;;;;;;;-1.76;100.00;97188.23;109691;1250;67798;-71
2023/11/29 07:56:42;;;;;;;7.80;6.70;;;;;;;-1.74;100.00;97187.91;109576;1250;72496;-71
2023/11/29 07:59:09;;;;;;;9.60;8.10;;;;;;;-1.73;100.00;97191.61;109633;1250;60939;-71
2023/11/29 08:01:37;;;;;;;8.40;6.70;;;;;;;-1.70;100.00;97196.55;109579;1250;60350;-71
2023/11/29 08:04:04;;;;;;;11.10;7.70;;;;;;;-1.68;100.00;97198.59;109632;1250;73706;-71
2023/11/29 08:06:32;;;;;;;8.70;7.10;;;;;;;-1.65;100.00;97206.48;109643;1250;67834;-71
2023/11/29 08:08:58;;;;;;;8.20;7.00;;;;;;;-1.64;100.00;97208.11;109634;1250;71091;-72
2023/11/29 08:11:25;;;;;;;7.10;6.30;;;;;;;-1.62;100.00;97210.88;109663;1250;59719;-72
2023/11/29 08:13:53;;;;;;;7.20;6.30;;;;;;;-1.62;100.00;97214.85;109626;1250;60145;-72
2023/11/29 08:16:20;;;;;;;7.60;6.60;;;;;;;-1.60;100.00;97219.58;109578;1250;74313;-71
2023/11/29 08:18:47;;;;;;;7.50;6.80;;;;;;;-1.57;100.00;97227.08;109653;1251;67751;-72
2023/11/29 08:21:14;;;;;;;7.00;6.20;;;;;;;-1.53;100.00;97231.70;109635;1251;71171;-71
2023/11/29 08:23:44;;;;;;;8.20;6.70;;;;;;;-1.47;100.00;97237.41;109616;1250;59931;-71
2023/11/29 08:26:10;;;;;;;7.30;6.40;;;;;;;-1.42;100.00;97237.29;109599;1250;60090;-71
2023/11/29 08:28:37;;;;;;;7.40;6.60;;;;;;;-1.40;100.00;97232.32;109633;1250;75478;-71
2023/11/29 08:31:04;;;;;;;7.40;6.70;;;;;;;-1.37;100.00;97236.84;109692;1250;67719;-72
2023/11/29 08:33:30;;;;;;;8.80;7.40;;;;;;;-1.31;100.00;97240.64;109596;1250;72955;-72
2023/11/29 08:35:57;;;;;;;9.60;8.60;;;;;;;-1.26;100.00;97246.62;109647;1250;60481;-72
2023/11/29 08:38:24;;;;;;;9.50;8.10;;;;;;;-1.22;100.00;97254.89;109599;1251;59735;-72
2023/11/29 08:40:51;;;;;;;10.30;8.70;;;;;;;-1.20;100.00;97255.60;109609;1251;75432;-72
2023/11/29 08:43:17;;;;;;;8.50;7.60;;;;;;;-1.18;100.00;97257.18;109688;1250;67742;-72
2023/11/29 08:45:51;;;;;;;8.70;7.80;;;;;;;-1.17;100.00;97257.61;109628;1250;71576;-72
2023/11/29 08:48:17;;;;;;;9.20;7.20;;;;;;;-1.17;100.00;97258.63;109603;1251;59908;-72
2023/11/29 08:50:49;;;;;;;9.00;7.50;;;;;;;-1.17;100.00;97256.46;109641;1250;59685;-72
2023/11/29 08:53:16;;;;;;;9.20;8.10;;;;;;;-1.17;100.00;97257.72;109650;1251;75416;-72
2023/11/29 08:55:44;;;;;;;7.70;6.90;;;;;;;-1.17;100.00;97258.95;109592;1251;67744;-72
2023/11/29 08:58:13;;;;;;;8.20;7.40;;;;;;;-1.16;100.00;97256.73;109601;1250;72629;-72
2023/11/29 09:00:43;;;;;;;7.80;7.10;;;;;;;-1.14;100.00;97258.67;109599;1251;60922;-72
2023/11/29 09:03:10;;;;;;;7.80;6.90;;;;;;;-1.12;100.00;97263.83;109648;1251;61050;-72
2023/11/29 09:05:40;;;;;;;7.40;6.20;;;;;;;-1.09;100.00;97261.13;109570;1250;75663;-73
2023/11/29 09:08:07;;;;;;;7.40;6.50;;;;;;;-1.07;100.00;97261.09;109627;1251;68911;-70
2023/11/29 09:10:34;;;;;;;7.10;6.50;;;;;;;-1.08;100.00;97264.34;109626;1250;72236;-71
2023/11/29 09:13:01;;;;;;;8.90;6.90;;;;;;;-1.10;100.00;97264.88;109671;1250;59808;-72
2023/11/29 09:15:28;;;;;;;7.40;6.60;;;;;;;-1.14;100.00;97266.13;109610;1251;59634;-71
2023/11/29 09:17:55;;;;;;;6.60;6.00;;;;;;;-1.18;100.00;97261.98;109654;1250;74492;-71
2023/11/29 09:20:22;;;;;;;7.50;6.40;;;;;;;-1.23;100.00;97269.77;109648;1250;68565;-71
2023/11/29 09:22:50;;;;;;;6.90;6.20;;;;;;;-1.28;100.00;97267.66;109652;1250;72854;-71
2023/11/29 09:25:17;;;;;;;6.80;6.20;;;;;;;-1.28;100.00;97270.79;109555;1250;60532;-71
2023/11/29 09:27:44;;;;;;;8.10;7.20;;;;;;;-1.26;100.00;97272.13;109651;1251;59652;-71
2023/11/29 09:30:11;;;;;;;10.10;6.60;;;;;;;-1.22;100.00;97274.56;109608;1250;75900;-71
2023/11/29 09:32:38;;;;;;;8.20;7.10;;;;;;;-1.16;100.00;97279.89;109692;1250;67357;-72
2023/11/29 09:35:05;;;;;;;8.60;6.50;;;;;;;-1.09;100.00;97286.16;109633;1250;73469;-72
2023/11/29 09:37:33;;;;;;;9.40;7.60;;;;;;;-1.02;100.00;97286.18;109606;1251;59773;-71
2023/11/29 09:40:00;;;;;;;8.20;7.20;;;;;;;-0.95;100.00;97290.09;109611;1250;60156;-71
2023/11/29 09:42:28;;;;;;;9.30;7.30;;;;;;;-0.93;100.00;97299.66;109619;1251;75821;-71
2023/11/29 09:44:54;;;;;;;9.60;6.70;;;;;;;-0.93;100.00;97298.31;109572;1251;66541;-71
2023/11/29 09:47:23;;;;;;;9.00;6.20;;;;;;;-0.94;100.00;97302.27;109575;1251;70682;-71
2023/11/29 09:49:50;;;;;;;7.30;6.50;;;;;;;-0.95;100.00;97305.75;109546;1251;59710;-72
2023/11/29 09:52:17;;;;;;;6.40;5.80;;;;;;;-0.94;100.00;97309.05;109659;1251;60282;-71
2023/11/29 09:54:44;;;;;;;7.60;6.30;;;;;;;-0.97;100.00;97307.73;109484;1251;190517;-71
2023/11/29 09:57:12;;;;;;;6.40;5.70;;;;;;;-0.99;100.00;97308.58;109593;1251;59748;-71
2023/11/29 09:59:38;;;;;;;6.60;5.30;;;;;;;-0.99;100.00;97312.80;109644;1250;72829;-71
2023/11/29 10:02:05;;;;;;;6.90;5.80;;;;;;;-0.99;100.00;97311.92;109612;1251;59948;-71
2023/11/29 10:04:36;;;;;;;8.40;6.40;;;;;;;-1.00;100.00;97315.72;109581;1250;60190;-71
2023/11/29 10:07:03;;;;;;;9.10;6.10;;;;;;;-1.00;100.00;97315.17;109650;1251;75703;-72
2023/11/29 10:09:29;;;;;;;6.50;5.80;;;;;;;-1.03;100.00;97317.35;109613;1250;66447;-71
2023/11/29 10:11:56;;;;;;;6.70;6.10;;;;;;;-1.04;100.00;97316.24;109619;1251;71227;-72
2023/11/29 10:14:23;;;;;;;7.20;6.50;;;;;;;-0.99;100.00;97321.04;109628;1251;61151;-72
2023/11/29 10:16:49;;;;;;;8.20;6.20;;;;;;;-0.92;100.00;97320.42;109643;1251;60231;-71
2023/11/29 10:19:17;;;;;;;8.50;6.20;;;;;;;-0.82;100.00;97325.02;109619;1251;74289;-71
2023/11/29 10:21:45;;;;;;;6.90;6.00;;;;;;;-0.71;100.00;97330.86;109671;1250;67945;-72
2023/11/29 10:24:22;;;;;;;6.10;5.20;;;;;;;-0.59;100.00;97328.15;109417;1251;72713;-71
2023/11/29 10:26:49;;;;;;;6.50;5.70;;;;;;;-0.47;100.00;97328.29;109544;1251;59828;-71
2023/11/29 10:29:16;;;;;;;8.20;6.10;;;;;;;-0.34;100.00;97332.78;109629;1250;60176;-71
2023/11/29 10:31:42;;;;;;;6.90;6.10;;;;;;;-0.23;100.00;97336.97;109567;1251;75191;-71
2023/11/29 10:34:10;;;;;;;6.70;6.00;;;;;;;-0.17;100.00;97339.48;109669;1250;66893;-71
2023/11/29 10:36:40;;;;;;;7.20;5.80;;;;;;;-0.15;100.00;97340.30;109399;1256;72428;-72
2023/11/29 10:39:16;;;;;;;9.00;5.70;;;;;;;-0.09;100.00;97345.70;109583;1250;59818;-72
2023/11/29 10:41:47;;;;;;;6.80;5.90;;;;;;;-0.07;100.00;97344.73;109714;1251;60120;-71
2023/11/29 10:44:14;;;;;;;6.20;5.60;;;;;;;-0.07;100.00;97346.80;109547;1250;75599;-71
2023/11/29 10:46:41;;;;;;;8.70;6.60;;;;;;;-0.15;100.00;97356.94;109623;1251;65691;-72
2023/11/29 10:49:24;;;;;;;8.60;6.90;;;;;;;-0.24;100.00;97359.92;109541;1252;73185;-71
2023/11/29 10:51:50;;;;;;;7.80;6.60;;;;;;;-0.30;100.00;97360.90;109603;1251;59734;-71
2023/11/29 10:54:17;;;;;;;7.90;6.70;;;;;;;-0.35;100.00;97373.02;109554;1251;59697;-71
2023/11/29 10:57:04;;;;;;;7.90;6.10;;;;;;;-0.40;100.00;97374.98;109370;1251;75470;-71
2023/11/29 10:59:34;;;;;;;6.10;5.40;;;;;;;-0.51;100.00;97376.91;109644;1250;65664;-71
2023/11/29 11:02:00;;;;;;;6.20;5.60;;;;;;;-0.58;100.00;97372.29;109556;1251;72627;-71
2023/11/29 11:04:32;;;;;;;6.30;5.70;;;;;;;-0.70;100.00;97371.67;109610;1251;59847;-71
2023/11/29 11:07:02;;;;;;;6.20;5.60;;;;;;;-0.82;100.00;97369.77;109653;1251;59941;-71
2023/11/29 11:09:42;;;;;;;5.60;4.60;;;;;;;-0.95;100.00;97368.98;109649;1251;75560;-71
2023/11/29 11:12:09;;;;;;;5.70;4.90;;;;;;;-1.10;100.00;97375.20;109686;1251;66674;-72